sensor_id;sensor_type;location;lat;lon;timestamp;pressure;altitude;pressure_sealevel;temperature;humidity
75940;BME280;75809;44.872;20.642;2024-02-14T00:01:51;100834.38;;;7.34;64.69
75940;BME280;75809;44.872;20.642;2024-02-14T00:04:16;100838.75;;;7.33;64.66
75940;BME280;75809;44.872;20.642;2024-02-14T00:06:41;100842.25;;;7.34;64.56
75940;BME280;75809;44.872;20.642;2024-02-14T00:09:08;100839.78;;;7.29;63.62
75940;BME280;75809;44.872;20.642;2024-02-14T00:11:34;100846.09;;;7.25;63.67
75940;BME280;75809;44.872;20.642;2024-02-14T00:13:59;100839.91;;;7.26;64.25
75940;BME280;75809;44.872;20.642;2024-02-14T00:16:25;100840.78;;;7.27;63.64
75940;BME280;75809;44.872;20.642;2024-02-14T00:18:51;100855.75;;;7.23;63.61
75940;BME280;75809;44.872;20.642;2024-02-14T00:21:16;100860.22;;;7.21;64.06
75940;BME280;75809;44.872;20.642;2024-02-14T00:23:42;100869.81;;;7.22;64.39
75940;BME280;75809;44.872;20.642;2024-02-14T00:26:09;100875.94;;;7.22;63.69
75940;BME280;75809;44.872;20.642;2024-02-14T00:28:35;100880.13;;;7.28;62.92
75940;BME280;75809;44.872;20.642;2024-02-14T00:31:00;100885.38;;;7.28;62.87
75940;BME280;75809;44.872;20.642;2024-02-14T00:33:26;100877.66;;;7.23;62.40
75940;BME280;75809;44.872;20.642;2024-02-14T00:35:51;100889.13;;;7.21;62.67
75940;BME280;75809;44.872;20.642;2024-02-14T00:38:17;100892.00;;;7.15;62.10
75940;BME280;75809;44.872;20.642;2024-02-14T00:40:43;100892.72;;;7.18;62.78
75940;BME280;75809;44.872;20.642;2024-02-14T00:43:08;100903.72;;;7.30;62.29
75940;BME280;75809;44.872;20.642;2024-02-14T00:45:33;100905.22;;;7.37;61.42
75940;BME280;75809;44.872;20.642;2024-02-14T00:47:59;100906.41;;;7.28;63.76
75940;BME280;75809;44.872;20.642;2024-02-14T00:50:26;100919.13;;;7.15;65.58
75940;BME280;75809;44.872;20.642;2024-02-14T00:52:52;100918.25;;;6.90;68.37
75940;BME280;75809;44.872;20.642;2024-02-14T00:55:17;100918.63;;;6.79;69.08
75940;BME280;75809;44.872;20.642;2024-02-14T00:57:43;100919.25;;;6.61;69.87
75940;BME280;75809;44.872;20.642;2024-02-14T01:00:09;100913.97;;;6.62;68.59
75940;BME280;75809;44.872;20.642;2024-02-14T01:02:34;100915.19;;;6.52;69.70
75940;BME280;75809;44.872;20.642;2024-02-14T01:05:00;100917.13;;;6.46;69.48
75940;BME280;75809;44.872;20.642;2024-02-14T01:07:26;100921.75;;;6.37;69.10
75940;BME280;75809;44.872;20.642;2024-02-14T01:09:51;100916.69;;;6.33;68.51
75940;BME280;75809;44.872;20.642;2024-02-14T01:12:17;100932.25;;;6.37;68.32
75940;BME280;75809;44.872;20.642;2024-02-14T01:14:42;100926.66;;;6.22;68.56
75940;BME280;75809;44.872;20.642;2024-02-14T01:17:08;100924.78;;;6.25;69.11
75940;BME280;75809;44.872;20.642;2024-02-14T01:19:34;100937.16;;;6.22;68.81
75940;BME280;75809;44.872;20.642;2024-02-14T01:21:59;100922.72;;;6.08;68.65
75940;BME280;75809;44.872;20.642;2024-02-14T01:24:25;100940.22;;;6.08;69.05
75940;BME280;75809;44.872;20.642;2024-02-14T01:26:55;100940.28;;;6.05;69.27
75940;BME280;75809;44.872;20.642;2024-02-14T01:29:21;100940.38;;;6.02;69.58
75940;BME280;75809;44.872;20.642;2024-02-14T01:31:48;100942.88;;;6.06;69.00
75940;BME280;75809;44.872;20.642;2024-02-14T01:34:15;100940.22;;;6.08;69.55
75940;BME280;75809;44.872;20.642;2024-02-14T01:36:41;100939.03;;;5.89;70.56
75940;BME280;75809;44.872;20.642;2024-02-14T01:39:06;100951.16;;;5.93;70.23
75940;BME280;75809;44.872;20.642;2024-02-14T01:41:33;100955.13;;;5.76;70.78
75940;BME280;75809;44.872;20.642;2024-02-14T01:43:58;100955.28;;;5.70;71.57
75940;BME280;75809;44.872;20.642;2024-02-14T01:46:25;100958.72;;;5.72;71.34
75940;BME280;75809;44.872;20.642;2024-02-14T01:48:50;100951.84;;;5.68;71.26
75940;BME280;75809;44.872;20.642;2024-02-14T01:51:18;100960.88;;;5.58;72.07
75940;BME280;75809;44.872;20.642;2024-02-14T01:53:44;100963.56;;;5.57;72.37
75940;BME280;75809;44.872;20.642;2024-02-14T01:56:11;100956.91;;;5.45;72.78
75940;BME280;75809;44.872;20.642;2024-02-14T01:58:37;100964.09;;;5.37;73.06
75940;BME280;75809;44.872;20.642;2024-02-14T02:01:04;100961.09;;;5.19;73.72
75940;BME280;75809;44.872;20.642;2024-02-14T02:03:29;100964.13;;;5.04;74.06
75940;BME280;75809;44.872;20.642;2024-02-14T02:05:58;100975.69;;;4.96;74.47
75940;BME280;75809;44.872;20.642;2024-02-14T02:08:24;100980.97;;;4.94;74.52
75940;BME280;75809;44.872;20.642;2024-02-14T02:10:50;100975.16;;;4.83;74.84
75940;BME280;75809;44.872;20.642;2024-02-14T02:13:15;100975.06;;;4.86;74.51
75940;BME280;75809;44.872;20.642;2024-02-14T02:15:41;100983.91;;;4.82;73.69
75940;BME280;75809;44.872;20.642;2024-02-14T02:18:10;100988.03;;;4.90;73.83
75940;BME280;75809;44.872;20.642;2024-02-14T02:20:35;100987.16;;;4.91;72.99
75940;BME280;75809;44.872;20.642;2024-02-14T02:23:01;100990.63;;;4.92;72.92
75940;BME280;75809;44.872;20.642;2024-02-14T02:25:27;100989.69;;;4.94;72.19
75940;BME280;75809;44.872;20.642;2024-02-14T02:27:53;100988.63;;;5.02;71.80
75940;BME280;75809;44.872;20.642;2024-02-14T02:30:25;100992.16;;;4.99;71.82
75940;BME280;75809;44.872;20.642;2024-02-14T02:32:50;100989.53;;;5.01;72.06
75940;BME280;75809;44.872;20.642;2024-02-14T02:35:17;101003.31;;;5.07;71.26
75940;BME280;75809;44.872;20.642;2024-02-14T02:37:46;100997.69;;;5.22;70.03
75940;BME280;75809;44.872;20.642;2024-02-14T02:40:13;100994.53;;;5.41;66.86
75940;BME280;75809;44.872;20.642;2024-02-14T02:42:39;101005.47;;;5.57;66.71
75940;BME280;75809;44.872;20.642;2024-02-14T02:45:05;101002.56;;;5.67;66.05
75940;BME280;75809;44.872;20.642;2024-02-14T02:47:32;101004.91;;;5.76;64.57
75940;BME280;75809;44.872;20.642;2024-02-14T02:49:57;101004.00;;;5.77;64.67
75940;BME280;75809;44.872;20.642;2024-02-14T02:52:25;101005.72;;;5.78;64.35
75940;BME280;75809;44.872;20.642;2024-02-14T02:54:50;101001.28;;;5.80;63.27
75940;BME280;75809;44.872;20.642;2024-02-14T02:57:17;101011.56;;;5.88;63.89
75940;BME280;75809;44.872;20.642;2024-02-14T02:59:44;101000.28;;;5.85;64.17
75940;BME280;75809;44.872;20.642;2024-02-14T03:02:10;101019.53;;;5.85;63.74
75940;BME280;75809;44.872;20.642;2024-02-14T03:04:38;101022.16;;;5.84;64.43
75940;BME280;75809;44.872;20.642;2024-02-14T03:07:03;101024.88;;;5.80;65.00
75940;BME280;75809;44.872;20.642;2024-02-14T03:09:32;101031.13;;;5.76;65.75
75940;BME280;75809;44.872;20.642;2024-02-14T03:11:58;101035.56;;;5.74;65.95
75940;BME280;75809;44.872;20.642;2024-02-14T03:14:23;101033.09;;;5.68;66.35
75940;BME280;75809;44.872;20.642;2024-02-14T03:16:49;101037.59;;;5.63;66.34
75940;BME280;75809;44.872;20.642;2024-02-14T03:19:15;101036.75;;;5.63;66.14
75940;BME280;75809;44.872;20.642;2024-02-14T03:21:40;101038.63;;;5.58;65.42
75940;BME280;75809;44.872;20.642;2024-02-14T03:24:06;101043.88;;;5.58;65.99
75940;BME280;75809;44.872;20.642;2024-02-14T03:26:34;101051.03;;;5.51;66.49
75940;BME280;75809;44.872;20.642;2024-02-14T03:29:01;101057.13;;;5.51;66.80
75940;BME280;75809;44.872;20.642;2024-02-14T03:31:27;101052.03;;;5.47;66.53
75940;BME280;75809;44.872;20.642;2024-02-14T03:33:53;101068.75;;;5.43;66.95
75940;BME280;75809;44.872;20.642;2024-02-14T03:36:19;101067.91;;;5.41;67.14
75940;BME280;75809;44.872;20.642;2024-02-14T03:38:44;101074.03;;;5.40;67.01
75940;BME280;75809;44.872;20.642;2024-02-14T03:41:12;101074.84;;;5.42;66.43
75940;BME280;75809;44.872;20.642;2024-02-14T03:43:38;101082.00;;;5.37;66.81
75940;BME280;75809;44.872;20.642;2024-02-14T03:46:05;101082.00;;;5.37;66.74
75940;BME280;75809;44.872;20.642;2024-02-14T03:48:31;101093.28;;;5.39;66.81
75940;BME280;75809;44.872;20.642;2024-02-14T03:50:57;101089.03;;;5.35;67.42
75940;BME280;75809;44.872;20.642;2024-02-14T03:53:23;101090.72;;;5.37;67.05
75940;BME280;75809;44.872;20.642;2024-02-14T03:55:48;101097.72;;;5.37;67.21
75940;BME280;75809;44.872;20.642;2024-02-14T03:58:14;101098.72;;;5.31;67.00
75940;BME280;75809;44.872;20.642;2024-02-14T04:00:42;101105.47;;;5.40;67.02
75940;BME280;75809;44.872;20.642;2024-02-14T04:03:12;101103.16;;;5.28;67.07
75940;BME280;75809;44.872;20.642;2024-02-14T04:05:37;101102.22;;;5.32;66.96
75940;BME280;75809;44.872;20.642;2024-02-14T04:08:03;101109.22;;;5.30;65.52
75940;BME280;75809;44.872;20.642;2024-02-14T04:10:31;101105.75;;;5.29;65.61
75940;BME280;75809;44.872;20.642;2024-02-14T04:12:57;101109.31;;;5.27;64.92
75940;BME280;75809;44.872;20.642;2024-02-14T04:15:23;101112.06;;;5.20;64.83
75940;BME280;75809;44.872;20.642;2024-02-14T04:17:49;101124.22;;;5.25;64.85
75940;BME280;75809;44.872;20.642;2024-02-14T04:20:15;101106.78;;;5.23;64.53
75940;BME280;75809;44.872;20.642;2024-02-14T04:22:41;101120.91;;;5.16;63.88
75940;BME280;75809;44.872;20.642;2024-02-14T04:25:08;101126.91;;;5.21;64.43
75940;BME280;75809;44.872;20.642;2024-02-14T04:27:34;101128.59;;;5.24;63.67
75940;BME280;75809;44.872;20.642;2024-02-14T04:30:01;101134.69;;;5.25;63.82
75940;BME280;75809;44.872;20.642;2024-02-14T04:32:27;101134.78;;;5.21;63.95
75940;BME280;75809;44.872;20.642;2024-02-14T04:34:52;101138.34;;;5.17;64.06
75940;BME280;75809;44.872;20.642;2024-02-14T04:37:18;101139.16;;;5.19;64.41
75940;BME280;75809;44.872;20.642;2024-02-14T04:39:44;101137.47;;;5.17;64.34
75940;BME280;75809;44.872;20.642;2024-02-14T04:42:10;101138.34;;;5.17;63.75
75940;BME280;75809;44.872;20.642;2024-02-14T04:44:35;101144.31;;;5.24;63.46
75940;BME280;75809;44.872;20.642;2024-02-14T04:47:01;101152.03;;;5.29;63.83
75940;BME280;75809;44.872;20.642;2024-02-14T04:49:27;101144.44;;;5.18;64.02
75940;BME280;75809;44.872;20.642;2024-02-14T04:51:56;101159.38;;;5.14;64.45
75940;BME280;75809;44.872;20.642;2024-02-14T04:54:22;101147.09;;;5.16;63.79
75940;BME280;75809;44.872;20.642;2024-02-14T04:56:47;101148.06;;;5.12;63.80
75940;BME280;75809;44.872;20.642;2024-02-14T04:59:13;101152.25;;;5.19;63.76
75940;BME280;75809;44.872;20.642;2024-02-14T05:01:38;101147.88;;;5.20;62.63
75940;BME280;75809;44.872;20.642;2024-02-14T05:04:07;101156.59;;;5.20;62.46
75940;BME280;75809;44.872;20.642;2024-02-14T05:06:33;101153.97;;;5.20;62.33
75940;BME280;75809;44.872;20.642;2024-02-14T05:08:58;101161.81;;;5.20;62.57
75940;BME280;75809;44.872;20.642;2024-02-14T05:11:24;101163.63;;;5.18;62.79
75940;BME280;75809;44.872;20.642;2024-02-14T05:13:50;101167.91;;;5.22;62.76
75940;BME280;75809;44.872;20.642;2024-02-14T05:16:19;101170.38;;;5.29;63.07
75940;BME280;75809;44.872;20.642;2024-02-14T05:18:45;101169.56;;;5.27;62.97
75940;BME280;75809;44.872;20.642;2024-02-14T05:21:10;101171.34;;;5.25;63.32
75940;BME280;75809;44.872;20.642;2024-02-14T05:23:36;101171.50;;;5.18;63.87
75940;BME280;75809;44.872;20.642;2024-02-14T05:26:02;101176.59;;;5.25;63.58
75940;BME280;75809;44.872;20.642;2024-02-14T05:28:28;101180.19;;;5.19;64.38
75940;BME280;75809;44.872;20.642;2024-02-14T05:33:20;101196.13;;;5.11;63.91
75940;BME280;75809;44.872;20.642;2024-02-14T05:35:49;101198.75;;;5.10;63.86
75940;BME280;75809;44.872;20.642;2024-02-14T05:38:15;101200.50;;;5.09;63.80
75940;BME280;75809;44.872;20.642;2024-02-14T05:40:41;101200.56;;;5.06;64.29
75940;BME280;75809;44.872;20.642;2024-02-14T05:43:09;101204.91;;;5.07;64.50
75940;BME280;75809;44.872;20.642;2024-02-14T05:45:35;101207.66;;;5.03;63.83
75940;BME280;75809;44.872;20.642;2024-02-14T05:48:01;101209.53;;;4.96;64.43
75940;BME280;75809;44.872;20.642;2024-02-14T05:50:27;101214.03;;;4.91;64.20
75940;BME280;75809;44.872;20.642;2024-02-14T05:52:52;101214.91;;;4.90;63.65
75940;BME280;75809;44.872;20.642;2024-02-14T05:55:18;101210.47;;;4.93;63.82
75940;BME280;75809;44.872;20.642;2024-02-14T05:57:43;101210.53;;;4.89;63.93
75940;BME280;75809;44.872;20.642;2024-02-14T06:00:09;101225.50;;;4.84;64.15
75940;BME280;75809;44.872;20.642;2024-02-14T06:02:36;101224.53;;;4.88;64.21
75940;BME280;75809;44.872;20.642;2024-02-14T06:05:01;101225.31;;;4.93;63.82
75940;BME280;75809;44.872;20.642;2024-02-14T06:07:27;101233.25;;;4.90;64.12
75940;BME280;75809;44.872;20.642;2024-02-14T06:09:53;101231.50;;;4.89;63.81
75940;BME280;75809;44.872;20.642;2024-02-14T06:12:19;101230.47;;;4.96;63.34
75940;BME280;75809;44.872;20.642;2024-02-14T06:14:47;101231.38;;;4.95;63.41
75940;BME280;75809;44.872;20.642;2024-02-14T06:17:12;101224.50;;;4.91;63.53
75940;BME280;75809;44.872;20.642;2024-02-14T06:19:38;101232.31;;;4.92;63.21
75940;BME280;75809;44.872;20.642;2024-02-14T06:22:04;101233.25;;;4.90;62.87
75940;BME280;75809;44.872;20.642;2024-02-14T06:24:29;101238.38;;;4.94;62.57
75940;BME280;75809;44.872;20.642;2024-02-14T06:26:55;101241.72;;;5.01;62.63
75940;BME280;75809;44.872;20.642;2024-02-14T06:29:20;101242.66;;;4.97;62.80
75940;BME280;75809;44.872;20.642;2024-02-14T06:31:46;101241.72;;;5.01;62.44
75940;BME280;75809;44.872;20.642;2024-02-14T06:34:12;101237.22;;;5.06;62.01
75940;BME280;75809;44.872;20.642;2024-02-14T06:36:38;101234.66;;;5.05;61.72
75940;BME280;75809;44.872;20.642;2024-02-14T06:39:04;101233.69;;;5.09;61.57
75940;BME280;75809;44.872;20.642;2024-02-14T06:41:31;101234.53;;;5.09;61.66
75940;BME280;75809;44.872;20.642;2024-02-14T06:43:57;101243.16;;;5.14;61.17
75940;BME280;75809;44.872;20.642;2024-02-14T06:46:23;101244.84;;;5.17;61.09
75940;BME280;75809;44.872;20.642;2024-02-14T06:48:48;101251.75;;;5.21;60.73
75940;BME280;75809;44.872;20.642;2024-02-14T06:51:14;101249.88;;;5.26;60.73
75940;BME280;75809;44.872;20.642;2024-02-14T06:53:39;101255.88;;;5.31;60.29
75940;BME280;75809;44.872;20.642;2024-02-14T06:56:05;101265.34;;;5.37;60.22
75940;BME280;75809;44.872;20.642;2024-02-14T06:58:31;101262.69;;;5.38;60.24
75940;BME280;75809;44.872;20.642;2024-02-14T07:00:57;101259.22;;;5.38;59.04
75940;BME280;75809;44.872;20.642;2024-02-14T07:03:22;101259.16;;;5.41;59.66
75940;BME280;75809;44.872;20.642;2024-02-14T07:05:47;101260.78;;;5.46;59.15
75940;BME280;75809;44.872;20.642;2024-02-14T07:08:13;101266.78;;;5.50;58.93
75940;BME280;75809;44.872;20.642;2024-02-14T07:10:40;101268.47;;;5.54;58.87
75940;BME280;75809;44.872;20.642;2024-02-14T07:13:05;101273.53;;;5.60;58.80
75940;BME280;75809;44.872;20.642;2024-02-14T07:15:31;101264.72;;;5.64;58.98
75940;BME280;75809;44.872;20.642;2024-02-14T07:17:56;101274.19;;;5.70;58.91
75940;BME280;75809;44.872;20.642;2024-02-14T07:20:23;101272.47;;;5.69;58.71
75940;BME280;75809;44.872;20.642;2024-02-14T07:22:52;101272.47;;;5.69;58.75
75940;BME280;75809;44.872;20.642;2024-02-14T07:25:19;101279.34;;;5.74;58.87
75940;BME280;75809;44.872;20.642;2024-02-14T07:27:45;101283.38;;;5.88;59.32
75940;BME280;75809;44.872;20.642;2024-02-14T07:30:13;101276.63;;;5.77;58.38
75940;BME280;75809;44.872;20.642;2024-02-14T07:32:39;101279.22;;;5.79;58.09
75940;BME280;75809;44.872;20.642;2024-02-14T07:35:05;101285.19;;;5.86;57.43
75940;BME280;75809;44.872;20.642;2024-02-14T07:37:31;101283.25;;;5.94;57.67
75940;BME280;75809;44.872;20.642;2024-02-14T07:39:58;101278.13;;;5.88;56.73
75940;BME280;75809;44.872;20.642;2024-02-14T07:42:23;101276.28;;;5.93;56.98
75940;BME280;75809;44.872;20.642;2024-02-14T07:44:49;101269.38;;;5.89;55.45
75940;BME280;75809;44.872;20.642;2024-02-14T07:47:14;101280.47;;;6.00;56.12
75940;BME280;75809;44.872;20.642;2024-02-14T07:49:40;101275.09;;;6.04;56.58
75940;BME280;75809;44.872;20.642;2024-02-14T07:52:06;101288.25;;;6.03;56.53
75940;BME280;75809;44.872;20.642;2024-02-14T07:54:32;101290.53;;;6.17;56.11
75940;BME280;75809;44.872;20.642;2024-02-14T07:56:57;101287.88;;;6.18;55.75
75940;BME280;75809;44.872;20.642;2024-02-14T07:59:23;101284.19;;;6.25;55.96
75940;BME280;75809;44.872;20.642;2024-02-14T08:01:48;101287.56;;;6.30;56.22
75940;BME280;75809;44.872;20.642;2024-02-14T08:04:14;101292.72;;;6.33;55.88
75940;BME280;75809;44.872;20.642;2024-02-14T08:06:40;101281.50;;;6.28;55.42
75940;BME280;75809;44.872;20.642;2024-02-14T08:09:06;101297.03;;;6.36;55.63
75940;BME280;75809;44.872;20.642;2024-02-14T08:11:35;101285.84;;;6.29;54.38
75940;BME280;75809;44.872;20.642;2024-02-14T08:14:01;101290.00;;;6.36;55.88
75940;BME280;75809;44.872;20.642;2024-02-14T08:16:27;101296.09;;;6.38;55.06
75940;BME280;75809;44.872;20.642;2024-02-14T08:18:52;101289.09;;;6.37;53.81
75940;BME280;75809;44.872;20.642;2024-02-14T08:21:25;101293.66;;;6.31;54.93
75940;BME280;75809;44.872;20.642;2024-02-14T08:23:52;101291.72;;;6.39;54.91
75940;BME280;75809;44.872;20.642;2024-02-14T08:26:17;101295.91;;;6.45;54.86
75940;BME280;75809;44.872;20.642;2024-02-14T08:28:43;101294.28;;;6.41;56.39
75940;BME280;75809;44.872;20.642;2024-02-14T08:31:12;101298.59;;;6.43;56.51
75940;BME280;75809;44.872;20.642;2024-02-14T08:33:38;101310.53;;;6.55;56.74
75940;BME280;75809;44.872;20.642;2024-02-14T08:36:05;101300.03;;;6.55;57.19
75940;BME280;75809;44.872;20.642;2024-02-14T08:38:31;101306.19;;;6.54;57.92
75940;BME280;75809;44.872;20.642;2024-02-14T08:40:57;101304.72;;;6.75;57.32
75940;BME280;75809;44.872;20.642;2024-02-14T08:43:23;101298.28;;;6.86;57.32
75940;BME280;75809;44.872;20.642;2024-02-14T08:45:51;101307.06;;;6.85;56.60
75940;BME280;75809;44.872;20.642;2024-02-14T08:48:17;101301.91;;;6.82;56.88
75940;BME280;75809;44.872;20.642;2024-02-14T08:50:43;101300.78;;;6.89;56.04
75940;BME280;75809;44.872;20.642;2024-02-14T08:53:08;101300.00;;;6.87;55.35
75940;BME280;75809;44.872;20.642;2024-02-14T08:55:35;101304.97;;;6.96;55.56
75940;BME280;75809;44.872;20.642;2024-02-14T08:58:01;101304.03;;;6.99;54.42
75940;BME280;75809;44.872;20.642;2024-02-14T09:00:27;101301.28;;;7.04;54.88
75940;BME280;75809;44.872;20.642;2024-02-14T09:02:52;101299.56;;;7.03;54.89
75940;BME280;75809;44.872;20.642;2024-02-14T09:05:18;101301.41;;;6.99;54.24
75940;BME280;75809;44.872;20.642;2024-02-14T09:07:44;101288.00;;;7.08;54.74
75940;BME280;75809;44.872;20.642;2024-02-14T09:10:10;101292.72;;;7.27;55.05
75940;BME280;75809;44.872;20.642;2024-02-14T09:12:38;101301.34;;;7.30;53.53
75940;BME280;75809;44.872;20.642;2024-02-14T09:15:04;101296.31;;;7.24;54.11
75940;BME280;75809;44.872;20.642;2024-02-14T09:17:30;101301.88;;;7.41;53.40
75940;BME280;75809;44.872;20.642;2024-02-14T09:19:56;101292.63;;;7.30;54.35
75940;BME280;75809;44.872;20.642;2024-02-14T09:22:21;101300.66;;;7.25;55.58
75940;BME280;75809;44.872;20.642;2024-02-14T09:24:48;101294.47;;;7.26;55.23
75940;BME280;75809;44.872;20.642;2024-02-14T09:27:14;101297.66;;;7.37;55.30
75940;BME280;75809;44.872;20.642;2024-02-14T09:29:39;101292.50;;;7.33;53.20
75940;BME280;75809;44.872;20.642;2024-02-14T09:32:05;101288.75;;;7.41;53.87
75940;BME280;75809;44.872;20.642;2024-02-14T09:34:30;101292.25;;;7.70;52.69
75940;BME280;75809;44.872;20.642;2024-02-14T09:36:56;101294.81;;;7.71;52.84
75940;BME280;75809;44.872;20.642;2024-02-14T09:39:24;101284.69;;;7.59;53.32
75940;BME280;75809;44.872;20.642;2024-02-14T09:41:55;101289.00;;;7.62;52.42
75940;BME280;75809;44.872;20.642;2024-02-14T09:44:27;101294.06;;;7.68;51.81
75940;BME280;75809;44.872;20.642;2024-02-14T09:46:55;101296.25;;;7.53;52.54
75940;BME280;75809;44.872;20.642;2024-02-14T09:49:22;101288.41;;;7.52;52.75
75940;BME280;75809;44.872;20.642;2024-02-14T09:51:49;101284.59;;;7.62;53.62
75940;BME280;75809;44.872;20.642;2024-02-14T09:54:16;101295.69;;;7.72;52.84
75940;BME280;75809;44.872;20.642;2024-02-14T09:56:48;101295.19;;;7.87;52.33
75940;BME280;75809;44.872;20.642;2024-02-14T09:59:16;101293.44;;;7.86;51.31
75940;BME280;75809;44.872;20.642;2024-02-14T10:01:42;101292.09;;;8.01;51.58
75940;BME280;75809;44.872;20.642;2024-02-14T10:04:08;101290.44;;;7.98;50.53
75940;BME280;75809;44.872;20.642;2024-02-14T10:06:35;101280.50;;;8.06;51.93
75940;BME280;75809;44.872;20.642;2024-02-14T10:09:02;101293.97;;;8.24;52.62
75940;BME280;75809;44.872;20.642;2024-02-14T10:11:27;101280.19;;;8.42;52.42
75940;BME280;75809;44.872;20.642;2024-02-14T10:13:53;101280.16;;;8.44;51.50
75940;BME280;75809;44.872;20.642;2024-02-14T10:16:22;101282.06;;;8.63;50.77
75940;BME280;75809;44.872;20.642;2024-02-14T10:18:48;101271.22;;;8.73;49.27
75940;BME280;75809;44.872;20.642;2024-02-14T10:21:16;101273.88;;;8.71;50.13
75940;BME280;75809;44.872;20.642;2024-02-14T10:23:45;101279.47;;;8.87;49.89
75940;BME280;75809;44.872;20.642;2024-02-14T10:26:13;101275.50;;;8.98;48.88
75940;BME280;75809;44.872;20.642;2024-02-14T10:28:42;101272.47;;;9.09;48.58
75940;BME280;75809;44.872;20.642;2024-02-14T10:31:10;101274.44;;;9.04;49.09
75940;BME280;75809;44.872;20.642;2024-02-14T10:33:36;101273.66;;;9.01;48.28
75940;BME280;75809;44.872;20.642;2024-02-14T10:36:02;101266.00;;;8.94;48.09
75940;BME280;75809;44.872;20.642;2024-02-14T10:38:32;101271.81;;;9.03;48.83
75940;BME280;75809;44.872;20.642;2024-02-14T10:41:02;101266.75;;;8.98;49.44
75940;BME280;75809;44.872;20.642;2024-02-14T10:43:28;101272.34;;;9.12;48.15
75940;BME280;75809;44.872;20.642;2024-02-14T10:45:54;101268.06;;;9.10;48.40
75940;BME280;75809;44.872;20.642;2024-02-14T10:48:22;101257.22;;;9.17;48.32
75940;BME280;75809;44.872;20.642;2024-02-14T10:50:53;101259.59;;;9.23;48.52
75940;BME280;75809;44.872;20.642;2024-02-14T10:53:21;101259.66;;;9.22;48.14
75940;BME280;75809;44.872;20.642;2024-02-14T10:55:49;101254.31;;;9.47;47.03
75940;BME280;75809;44.872;20.642;2024-02-14T10:58:17;101255.41;;;9.41;47.38
75940;BME280;75809;44.872;20.642;2024-02-14T11:00:44;101254.13;;;9.51;47.41
75940;BME280;75809;44.872;20.642;2024-02-14T11:03:10;101257.25;;;9.61;47.48
75940;BME280;75809;44.872;20.642;2024-02-14T11:05:46;101253.47;;;9.67;46.81
75940;BME280;75809;44.872;20.642;2024-02-14T11:08:15;101247.75;;;9.77;46.41
75940;BME280;75809;44.872;20.642;2024-02-14T11:10:53;101241.91;;;9.71;46.33
75940;BME280;75809;44.872;20.642;2024-02-14T11:13:19;101261.59;;;9.62;46.49
75940;BME280;75809;44.872;20.642;2024-02-14T11:15:45;101256.19;;;9.65;46.45
75940;BME280;75809;44.872;20.642;2024-02-14T11:18:11;101252.94;;;9.15;47.91
75940;BME280;75809;44.872;20.642;2024-02-14T11:20:38;101252.97;;;9.37;47.74
75940;BME280;75809;44.872;20.642;2024-02-14T11:23:06;101253.91;;;9.56;47.66
75940;BME280;75809;44.872;20.642;2024-02-14T11:25:37;101254.03;;;9.53;48.00
75940;BME280;75809;44.872;20.642;2024-02-14T11:28:24;101251.59;;;9.26;47.85
75940;BME280;75809;44.872;20.642;2024-02-14T11:31:00;101251.97;;;9.39;48.14
75940;BME280;75809;44.872;20.642;2024-02-14T11:33:26;101244.97;;;9.16;48.13
75940;BME280;75809;44.872;20.642;2024-02-14T11:35:52;101244.72;;;9.22;48.26
75940;BME280;75809;44.872;20.642;2024-02-14T11:38:22;101247.28;;;9.24;47.10
75940;BME280;75809;44.872;20.642;2024-02-14T11:40:49;101243.00;;;9.43;46.45
75940;BME280;75809;44.872;20.642;2024-02-14T11:43:17;101245.91;;;9.59;46.49
75940;BME280;75809;44.872;20.642;2024-02-14T11:45:43;101245.69;;;9.64;46.12
75940;BME280;75809;44.872;20.642;2024-02-14T11:48:14;101234.59;;;9.98;44.95
75940;BME280;75809;44.872;20.642;2024-02-14T11:50:43;101243.72;;;9.91;44.91
75940;BME280;75809;44.872;20.642;2024-02-14T11:53:14;101255.59;;;10.01;44.35
75940;BME280;75809;44.872;20.642;2024-02-14T11:55:42;101243.09;;;9.84;44.86
75940;BME280;75809;44.872;20.642;2024-02-14T11:58:11;101252.56;;;9.90;45.16
75940;BME280;75809;44.872;20.642;2024-02-14T12:00:42;101245.88;;;10.23;45.14
75940;BME280;75809;44.872;20.642;2024-02-14T12:03:12;101250.09;;;10.48;43.64
75940;BME280;75809;44.872;20.642;2024-02-14T12:05:37;101238.34;;;10.34;44.57
75940;BME280;75809;44.872;20.642;2024-02-14T12:08:05;101237.38;;;10.76;43.34
75940;BME280;75809;44.872;20.642;2024-02-14T12:10:32;101243.22;;;11.01;42.75
75940;BME280;75809;44.872;20.642;2024-02-14T12:12:58;101243.66;;;12.02;40.45
75940;BME280;75809;44.872;20.642;2024-02-14T12:15:26;101240.31;;;12.82;38.74
75940;BME280;75809;44.872;20.642;2024-02-14T12:17:54;101237.19;;;13.07;38.31
75940;BME280;75809;44.872;20.642;2024-02-14T12:20:22;101233.63;;;13.55;37.88
75940;BME280;75809;44.872;20.642;2024-02-14T12:22:51;101241.88;;;14.11;36.42
75940;BME280;75809;44.872;20.642;2024-02-14T12:25:17;101235.94;;;13.92;36.49
75940;BME280;75809;44.872;20.642;2024-02-14T12:27:42;101217.09;;;13.50;37.00
75940;BME280;75809;44.872;20.642;2024-02-14T12:30:08;101242.94;;;13.93;36.84
75940;BME280;75809;44.872;20.642;2024-02-14T12:32:35;101230.69;;;14.20;35.86
75940;BME280;75809;44.872;20.642;2024-02-14T12:35:00;101216.63;;;14.76;34.06
75940;BME280;75809;44.872;20.642;2024-02-14T12:37:26;101242.19;;;14.35;35.02
75940;BME280;75809;44.872;20.642;2024-02-14T12:39:51;101231.97;;;15.14;34.24
75940;BME280;75809;44.872;20.642;2024-02-14T12:42:19;101231.22;;;15.80;33.20
75940;BME280;75809;44.872;20.642;2024-02-14T12:44:50;101243.09;;;13.75;35.62
75940;BME280;75809;44.872;20.642;2024-02-14T12:47:17;101232.13;;;12.87;38.00
75940;BME280;75809;44.872;20.642;2024-02-14T12:49:45;101238.50;;;11.82;40.06